createdAt,value
2019-06-07T00:01:51.228Z,43.99
2019-06-07T00:04:23.111Z,44.11
2019-06-07T00:06:55.130Z,44.47
2019-06-07T00:09:27.480Z,44.49
2019-06-07T00:11:59.607Z,44.78
2019-06-07T00:14:31.671Z,44.74
2019-06-07T00:17:04.216Z,44.95
2019-06-07T00:19:36.437Z,45.30
2019-06-07T00:22:18.388Z,45.45
2019-06-07T00:24:46.252Z,45.33
2019-06-07T00:27:22.311Z,45.35
2019-06-07T00:29:52.721Z,45.36
2019-06-07T00:32:24.674Z,45.36
2019-06-07T00:34:56.618Z,45.77
2019-06-07T00:37:29.235Z,46.19
2019-06-07T00:40:14.122Z,46.11
2019-06-07T00:42:35.300Z,46.41
2019-06-07T00:45:07.523Z,46.55
2019-06-07T00:47:39.580Z,46.64
2019-06-07T00:50:11.596Z,47.04
2019-06-07T00:53:13.725Z,46.90
2019-06-07T00:55:19.586Z,46.55
2019-06-07T00:57:50.904Z,46.87
2019-06-07T01:00:25.562Z,46.94
2019-06-07T01:02:57.496Z,47.02
2019-06-07T01:05:31.620Z,47.19
2019-06-07T01:08:04.424Z,47.53
2019-06-07T01:10:52.997Z,47.48
2019-06-07T01:13:11.157Z,47.34
2019-06-07T01:15:43.019Z,47.68
2019-06-07T01:20:48.891Z,48.14
2019-06-07T01:23:59.863Z,48.07
2019-06-07T01:25:54.360Z,48.21
2019-06-07T01:28:27.080Z,48.41
2019-06-07T01:31:00.111Z,48.57
2019-06-07T01:33:50.273Z,48.33
2019-06-07T01:36:05.976Z,48.34
2019-06-07T01:38:38.052Z,48.59
2019-06-07T01:41:11.253Z,48.91
2019-06-07T01:43:43.278Z,49.04
2019-06-07T01:46:15.783Z,49.51
2019-06-07T01:48:49.737Z,49.75
2019-06-07T01:51:22.096Z,50.21
2019-06-07T01:54:41.255Z,50.19
2019-06-07T01:56:29.930Z,50.30
2019-06-07T01:59:02.013Z,50.53
2019-06-07T02:01:35.304Z,50.50
2019-06-07T02:04:07.698Z,50.74
2019-06-07T02:06:39.631Z,50.88
2019-06-07T02:09:13.807Z,51.70
2019-06-07T02:11:46.630Z,52.12
2019-06-07T02:14:19.617Z,52.47
2019-06-07T02:16:51.670Z,51.74
2019-06-07T02:19:24.311Z,51.72
2019-06-07T02:21:56.592Z,52.48
2019-06-07T02:24:31.756Z,52.92
2019-06-07T02:27:02.346Z,52.87
2019-06-07T02:29:34.392Z,53.13
2019-06-07T02:32:06.509Z,52.97
2019-06-07T02:34:39.718Z,53.45
2019-06-07T02:37:12.401Z,53.43
2019-06-07T02:39:44.575Z,53.65
2019-06-07T02:42:16.554Z,53.85
2019-06-07T02:44:48.769Z,53.63
2019-06-07T02:47:22.613Z,54.13
2019-06-07T02:49:54.910Z,54.28
2019-06-07T02:52:29.332Z,54.53
2019-06-07T02:55:00.786Z,54.61
2019-06-07T02:57:37.013Z,54.64
2019-06-07T03:00:40.386Z,54.72
2019-06-07T03:02:43.047Z,54.97
2019-06-07T03:05:15.330Z,54.92
2019-06-07T03:07:47.497Z,55.10
2019-06-07T03:10:19.603Z,55.33
2019-06-07T03:12:51.859Z,55.75
2019-06-07T03:15:37.404Z,55.71
2019-06-07T03:18:02.699Z,55.42
2019-06-07T03:20:36.760Z,54.05
2019-06-07T03:23:08.331Z,54.47
2019-06-07T03:25:40.319Z,54.15
2019-06-07T03:28:13.253Z,54.25
2019-06-07T03:31:01.033Z,54.39
2019-06-07T03:33:18.815Z,53.87
2019-06-07T03:35:51.054Z,54.17
2019-06-07T03:38:23.495Z,54.70
2019-06-07T03:40:55.567Z,53.61
2019-06-07T03:43:29.828Z,51.98
2019-06-07T03:46:01.210Z,50.86
2019-06-07T03:48:37.829Z,50.16
2019-06-07T03:51:24.149Z,49.20
2019-06-07T03:53:41.045Z,49.25
2019-06-07T03:56:14.076Z,48.89
2019-06-07T03:58:50.243Z,49.31
2019-06-07T04:01:20.363Z,49.33
2019-06-07T04:03:52.485Z,49.49
2019-06-07T04:06:25.002Z,49.53
2019-06-07T04:08:57.464Z,50.11
2019-06-07T04:11:30.622Z,50.16
2019-06-07T04:14:03.248Z,50.15
2019-06-07T04:16:40.434Z,49.87
2019-06-07T04:19:09.017Z,50.29
2019-06-07T04:21:42.885Z,50.65
2019-06-07T04:24:15.093Z,50.83
2019-06-07T04:26:47.265Z,50.82
2019-06-07T04:30:02.313Z,50.48
2019-06-07T04:31:55.223Z,49.95
2019-06-07T04:34:29.137Z,49.79
2019-06-07T04:37:01.563Z,49.97
2019-06-07T04:39:36.406Z,49.95
2019-06-07T04:42:07.838Z,49.65
2019-06-07T04:44:42.621Z,49.39
2019-06-07T04:47:13.408Z,49.08
2019-06-07T04:49:47.936Z,49.14
2019-06-07T04:52:19.894Z,49.15
2019-06-07T04:54:52.159Z,49.24
2019-06-07T04:57:24.908Z,48.78
2019-06-07T05:00:46.089Z,48.47
2019-06-07T05:02:34.562Z,48.58
2019-06-07T05:05:07.513Z,47.70
2019-06-07T05:07:40.854Z,48.03
2019-06-07T05:10:13.596Z,47.56
2019-06-07T05:12:46.403Z,47.50
2019-06-07T05:15:18.487Z,47.24
2019-06-07T05:17:51.532Z,46.28
2019-06-07T05:20:23.933Z,45.43
2019-06-07T05:22:56.080Z,45.50
2019-06-07T05:25:33.264Z,45.17
2019-06-07T05:28:04.861Z,44.98
2019-06-07T05:33:15.082Z,45.08
2019-06-07T05:35:48.848Z,43.92
2019-06-07T05:38:21.193Z,43.51
2019-06-07T05:40:53.181Z,44.07
2019-06-07T05:43:29.510Z,44.08
2019-06-07T05:46:01.747Z,43.75
2019-06-07T05:48:34.142Z,43.98
2019-06-07T05:51:06.377Z,43.25
2019-06-07T05:53:40.247Z,42.25
2019-06-07T05:56:13.001Z,41.68
2019-06-07T05:58:45.231Z,41.16
2019-06-07T06:03:50.943Z,41.12
2019-06-07T06:06:23.021Z,41.42
2019-06-07T06:09:12.968Z,41.21
2019-06-07T06:11:45.815Z,41.43
2019-06-07T06:14:08.001Z,41.48
2019-06-07T06:16:37.239Z,41.40
2019-06-07T06:19:09.540Z,41.73
2019-06-07T06:21:46.050Z,41.27
2019-06-07T06:24:15.541Z,41.86
2019-06-07T06:26:52.264Z,41.84
2019-06-07T06:29:21.643Z,41.70
2019-06-07T06:32:39.444Z,41.89
2019-06-07T06:34:27.826Z,41.41
2019-06-07T06:37:00.508Z,41.36
2019-06-07T06:39:32.677Z,41.60
2019-06-07T06:42:05.908Z,40.87
2019-06-07T06:44:40.767Z,40.65
2019-06-07T06:47:11.444Z,40.93
2019-06-07T06:49:44.236Z,40.76
2019-06-07T06:52:16.940Z,40.29
2019-06-07T06:54:59.398Z,40.38
2019-06-07T06:57:22.586Z,40.42
2019-06-07T06:59:54.446Z,40.76
2019-06-07T07:02:26.183Z,40.67
2019-06-07T07:04:58.062Z,40.65
2019-06-07T07:07:30.038Z,40.97
2019-06-07T07:10:03.062Z,41.23
2019-06-07T07:12:35.336Z,41.28
2019-06-07T07:15:07.949Z,41.40
2019-06-07T07:17:53.893Z,41.57
2019-06-07T07:20:13.883Z,41.17
2019-06-07T07:22:47.986Z,41.86
2019-06-07T07:25:19.532Z,40.77
2019-06-07T07:27:54.898Z,39.71
2019-06-07T07:30:41.917Z,38.01
2019-06-07T07:33:17.968Z,37.49
2019-06-07T07:36:10.936Z,38.22
2019-06-07T07:38:23.596Z,36.41
2019-06-07T07:41:06.663Z,36.47
2019-06-07T07:43:30.163Z,36.50
2019-06-07T07:46:03.127Z,35.84
2019-06-07T07:48:35.772Z,36.03
2019-06-07T07:51:07.621Z,36.43
2019-06-07T07:53:52.461Z,36.72
2019-06-07T07:56:13.020Z,36.71
2019-06-07T07:58:48.747Z,37.48
2019-06-07T08:01:19.244Z,38.02
2019-06-07T08:03:54.870Z,37.85
2019-06-07T08:06:25.108Z,37.46
2019-06-07T08:08:59.133Z,37.53
2019-06-07T08:11:31.130Z,37.40
2019-06-07T08:14:02.972Z,38.02
2019-06-07T08:16:35.035Z,38.16
2019-06-07T08:19:07.455Z,38.37
2019-06-07T08:21:39.717Z,37.19
2019-06-07T08:24:11.834Z,36.78
2019-06-07T08:26:44.053Z,36.78
2019-06-07T08:29:16.066Z,36.49
2019-06-07T08:31:48.402Z,36.90
2019-06-07T08:34:21.070Z,36.77
2019-06-07T08:36:54.914Z,36.96
2019-06-07T08:39:26.987Z,37.39
2019-06-07T08:42:11.947Z,36.56
2019-06-07T08:44:32.410Z,36.16
2019-06-07T08:47:19.509Z,35.99
2019-06-07T08:49:38.028Z,35.92
2019-06-07T08:52:12.160Z,36.22
2019-06-07T08:54:43.643Z,36.44
2019-06-07T08:57:21.126Z,35.47
2019-06-07T08:59:49.121Z,35.81
2019-06-07T09:02:24.147Z,36.57
2019-06-07T09:04:56.998Z,35.83
2019-06-07T09:07:28.254Z,36.16
2019-06-07T09:10:08.270Z,36.46
2019-06-07T09:12:34.151Z,36.88
2019-06-07T09:15:20.971Z,36.58
2019-06-07T09:18:29.616Z,36.32
2019-06-07T09:20:34.988Z,36.20
2019-06-07T09:22:48.678Z,36.53
2019-06-07T09:25:21.827Z,37.01
2019-06-07T09:27:54.256Z,37.67
2019-06-07T09:30:42.970Z,38.17
2019-06-07T09:33:14.818Z,38.68
2019-06-07T09:35:46.869Z,37.51
2019-06-07T09:38:25.633Z,38.22
2019-06-07T09:40:52.254Z,39.08
2019-06-07T09:44:00.616Z,39.26
2019-06-07T09:45:58.867Z,39.69
2019-06-07T09:51:09.536Z,39.37
2019-06-07T09:53:38.633Z,39.63
2019-06-07T09:56:12.120Z,39.60
2019-06-07T09:58:53.553Z,40.02
2019-06-07T10:01:18.207Z,39.35
2019-06-07T10:03:50.049Z,38.64
2019-06-07T10:06:21.999Z,38.37
2019-06-07T10:10:08.199Z,38.76
2019-06-07T10:11:27.805Z,38.73
2019-06-07T10:14:00.316Z,38.92
2019-06-07T10:16:45.958Z,38.39
2019-06-07T10:19:07.419Z,38.35
2019-06-07T10:21:39.538Z,38.41
2019-06-07T10:24:11.681Z,38.58
2019-06-07T10:26:43.541Z,38.41
2019-06-07T10:29:16.539Z,38.55
2019-06-07T10:31:48.324Z,38.53
2019-06-07T10:34:20.166Z,39.05
2019-06-07T10:36:51.987Z,38.81
2019-06-07T10:39:23.955Z,39.08
2019-06-07T10:41:55.709Z,39.85
2019-06-07T10:44:28.171Z,39.68
2019-06-07T10:47:01.663Z,39.51
2019-06-07T10:49:33.641Z,39.14
2019-06-07T10:52:10.383Z,39.63
2019-06-07T10:54:42.797Z,39.85
2019-06-07T10:57:16.245Z,38.91
2019-06-07T10:59:48.556Z,38.98
2019-06-07T11:02:20.501Z,39.28
2019-06-07T11:04:52.531Z,38.75
2019-06-07T11:07:24.523Z,39.22
2019-06-07T11:10:07.548Z,39.21
2019-06-07T11:12:30.850Z,38.92
2019-06-07T11:15:02.751Z,38.05
2019-06-07T11:17:36.062Z,38.34
2019-06-07T11:20:08.399Z,38.60
2019-06-07T11:22:43.303Z,38.78
2019-06-07T11:25:16.803Z,39.48
2019-06-07T11:27:49.149Z,38.98
2019-06-07T11:30:21.206Z,39.79
2019-06-07T11:32:53.316Z,39.54
2019-06-07T11:35:25.283Z,39.95
2019-06-07T11:37:57.346Z,40.26
2019-06-07T11:40:35.572Z,40.42
2019-06-07T11:43:02.927Z,40.03
2019-06-07T11:45:34.762Z,40.22
2019-06-07T11:48:07.263Z,40.12
2019-06-07T11:50:39.215Z,40.50
2019-06-07T11:53:12.662Z,40.51
2019-06-07T11:55:45.355Z,40.35
2019-06-07T11:58:21.554Z,40.64
2019-06-07T12:00:51.016Z,40.85
2019-06-07T12:03:22.883Z,40.23
2019-06-07T12:05:54.906Z,40.07
2019-06-07T12:08:26.865Z,39.17
2019-06-07T12:10:58.991Z,38.86
2019-06-07T12:13:30.808Z,38.69
2019-06-07T12:16:03.815Z,38.45
2019-06-07T12:18:35.575Z,38.75
2019-06-07T12:21:07.680Z,38.34
2019-06-07T12:23:39.656Z,37.78
2019-06-07T12:26:12.281Z,37.78
2019-06-07T12:28:44.503Z,38.24
2019-06-07T12:31:21.167Z,38.39
2019-06-07T12:33:53.838Z,38.35
2019-06-07T12:36:25.778Z,37.19
2019-06-07T12:38:57.638Z,37.88
2019-06-07T12:41:29.676Z,37.28
2019-06-07T12:44:02.492Z,37.32
2019-06-07T12:46:34.758Z,36.12
2019-06-07T12:49:08.707Z,36.45
2019-06-07T12:51:40.639Z,35.61
2019-06-07T12:54:13.498Z,36.25
2019-06-07T12:56:47.118Z,35.60
2019-06-07T12:59:20.623Z,36.08
2019-06-07T13:01:54.326Z,35.95
2019-06-07T13:04:27.777Z,36.15
2019-06-07T13:07:00.102Z,36.28
2019-06-07T13:09:35.892Z,36.07
2019-06-07T13:12:06.063Z,35.94
2019-06-07T13:14:38.109Z,35.72
2019-06-07T13:17:10.109Z,35.54
2019-06-07T13:19:42.042Z,34.90
2019-06-07T13:22:16.086Z,35.23
2019-06-07T13:24:47.969Z,35.08
2019-06-07T13:27:22.478Z,35.32
2019-06-07T13:29:54.594Z,35.28
2019-06-07T13:32:28.058Z,34.74
2019-06-07T13:35:00.208Z,34.66
2019-06-07T13:37:32.439Z,34.61
2019-06-07T13:40:06.152Z,34.27
2019-06-07T13:42:38.473Z,34.53
2019-06-07T13:45:10.276Z,34.11
2019-06-07T13:47:42.233Z,34.33
2019-06-07T13:50:14.273Z,34.69
2019-06-07T13:52:47.158Z,35.07
2019-06-07T13:55:21.829Z,34.76
2019-06-07T13:57:54.018Z,34.52
2019-06-07T14:00:26.630Z,34.69
2019-06-07T14:02:58.721Z,36.93
2019-06-07T14:05:30.937Z,37.54
2019-06-07T14:08:03.225Z,38.16
2019-06-07T14:10:35.563Z,38.74
2019-06-07T14:13:07.855Z,40.19
2019-06-07T14:15:40.034Z,39.69
2019-06-07T14:18:12.070Z,39.70
2019-06-07T14:20:43.950Z,40.20
2019-06-07T14:23:16.013Z,40.44
2019-06-07T14:25:47.959Z,40.82
2019-06-07T14:28:23.848Z,41.85
2019-06-07T14:30:54.941Z,42.22
2019-06-07T14:33:28.292Z,39.98
2019-06-07T14:36:00.446Z,39.13
2019-06-07T14:38:35.435Z,40.39
2019-06-07T14:41:05.906Z,40.70
2019-06-07T14:43:37.753Z,40.11
2019-06-07T14:46:10.128Z,44.55
2019-06-07T14:48:42.158Z,47.52
2019-06-07T14:51:14.348Z,50.48
2019-06-07T14:53:46.199Z,51.34
2019-06-07T14:56:18.140Z,53.24
2019-06-07T14:58:50.535Z,53.32
2019-06-07T15:01:22.618Z,53.50
2019-06-07T15:03:54.680Z,55.92
2019-06-07T15:06:26.842Z,56.74
2019-06-07T15:08:58.804Z,56.75
2019-06-07T15:11:31.213Z,58.03
2019-06-07T15:14:03.337Z,58.59
2019-06-07T15:16:35.825Z,59.19
2019-06-07T15:19:08.304Z,60.00
2019-06-07T15:21:40.358Z,61.69
2019-06-07T15:24:12.314Z,61.13
2019-06-07T15:26:44.287Z,61.15
2019-06-07T15:29:16.361Z,61.20
2019-06-07T15:31:49.229Z,61.37
2019-06-07T15:34:21.500Z,62.68
2019-06-07T15:36:53.564Z,61.80
2019-06-07T15:39:25.624Z,62.56
2019-06-07T15:41:57.605Z,63.63
2019-06-07T15:44:29.454Z,63.32
2019-06-07T15:47:01.626Z,63.28
2019-06-07T15:49:34.164Z,61.10
2019-06-07T15:52:06.061Z,61.42
2019-06-07T15:54:38.502Z,61.38
2019-06-07T15:57:10.492Z,61.19
2019-06-07T15:59:42.657Z,60.97
2019-06-07T16:02:14.925Z,61.10
2019-06-07T16:04:46.894Z,61.69
2019-06-07T16:07:19.159Z,61.65
2019-06-07T16:09:51.431Z,60.83
2019-06-07T16:12:23.295Z,61.33
2019-06-07T16:14:55.559Z,61.12
2019-06-07T16:17:27.931Z,61.32
2019-06-07T16:19:59.995Z,61.58
2019-06-07T16:22:33.429Z,61.46
2019-06-07T16:25:06.890Z,61.53
2019-06-07T16:27:40.464Z,61.80
2019-06-07T16:30:13.021Z,62.12
2019-06-07T16:32:46.316Z,62.33
2019-06-07T16:35:18.699Z,62.35
2019-06-07T16:37:52.358Z,62.14
2019-06-07T16:40:24.605Z,62.10
2019-06-07T16:42:56.988Z,62.24
2019-06-07T16:45:29.250Z,62.33
2019-06-07T16:48:01.095Z,62.90
2019-06-07T16:50:33.377Z,63.71
2019-06-07T16:53:05.703Z,64.00
2019-06-07T16:55:38.809Z,64.77
2019-06-07T16:58:10.707Z,65.14
2019-06-07T17:00:44.172Z,64.51
2019-06-07T17:03:16.388Z,64.14
2019-06-07T17:05:50.443Z,63.93
2019-06-07T17:08:21.895Z,64.38
2019-06-07T17:10:53.843Z,64.68
2019-06-07T17:13:33.382Z,65.16
2019-06-07T17:15:59.263Z,65.35
2019-06-07T17:18:31.360Z,65.49
2019-06-07T17:21:03.255Z,65.51
2019-06-07T17:23:35.102Z,65.18
2019-06-07T17:26:07.042Z,65.37
2019-06-07T17:28:39.663Z,65.33
2019-06-07T17:31:12.199Z,64.98
2019-06-07T17:33:44.205Z,64.76
2019-06-07T17:36:16.179Z,64.90
2019-06-07T17:38:48.636Z,65.33
2019-06-07T17:41:20.607Z,65.48
2019-06-07T17:43:59.701Z,65.16
2019-06-07T17:46:26.699Z,64.87
2019-06-07T17:48:58.661Z,64.75
2019-06-07T17:51:32.073Z,64.47
2019-06-07T17:54:04.224Z,64.12
2019-06-07T17:56:38.233Z,64.48
2019-06-07T17:59:10.107Z,64.75
2019-06-07T18:01:51.891Z,64.96
2019-06-07T18:04:15.658Z,65.07
2019-06-07T18:06:47.690Z,64.95
2019-06-07T18:09:19.830Z,65.10
2019-06-07T18:11:52.602Z,65.38
2019-06-07T18:14:24.630Z,65.14
2019-06-07T18:16:56.570Z,65.10
2019-06-07T18:19:28.701Z,65.45
2019-06-07T18:22:01.621Z,65.28
2019-06-07T18:24:34.645Z,64.97
2019-06-07T18:27:07.307Z,64.80
2019-06-07T18:29:42.391Z,65.07
2019-06-07T18:32:14.299Z,65.08
2019-06-07T18:34:46.791Z,65.21
2019-06-07T18:37:19.861Z,65.32
2019-06-07T18:39:53.094Z,65.53
2019-06-07T18:42:25.154Z,65.61
2019-06-07T18:44:57.172Z,65.79
2019-06-07T18:47:29.265Z,65.60
2019-06-07T18:50:01.356Z,65.39
2019-06-07T18:52:35.058Z,65.14
2019-06-07T18:55:12.809Z,64.74
2019-06-07T18:57:45.503Z,64.50
2019-06-07T19:00:20.804Z,64.06
2019-06-07T19:02:54.020Z,63.96
2019-06-07T19:05:28.643Z,63.71
2019-06-07T19:08:02.102Z,63.75
2019-06-07T19:10:34.056Z,63.42
2019-06-07T19:13:06.053Z,63.25
2019-06-07T19:15:38.088Z,62.63
2019-06-07T19:18:10.082Z,62.98
2019-06-07T19:20:44.417Z,62.37
2019-06-07T19:23:16.656Z,62.27
2019-06-07T19:25:50.158Z,62.23
2019-06-07T19:28:22.438Z,62.17
2019-06-07T19:30:54.994Z,62.38
2019-06-07T19:33:27.080Z,62.08
2019-06-07T19:35:59.545Z,61.82
2019-06-07T19:38:31.624Z,61.30
2019-06-07T19:41:18.382Z,60.96
2019-06-07T19:43:37.394Z,60.68
2019-06-07T19:46:09.367Z,60.68
2019-06-07T19:48:44.078Z,60.77
2019-06-07T19:51:20.082Z,60.57
2019-06-07T19:53:50.298Z,60.21
2019-06-07T19:56:22.296Z,60.06
2019-06-07T19:58:55.527Z,60.14
2019-06-07T20:01:27.827Z,60.46
2019-06-07T20:04:00.020Z,60.63
2019-06-07T20:06:32.556Z,60.98
2019-06-07T20:09:06.689Z,61.13
2019-06-07T20:11:38.549Z,61.04
2019-06-07T20:14:10.424Z,61.03
2019-06-07T20:16:42.477Z,61.07
2019-06-07T20:19:14.599Z,60.99
2019-06-07T20:21:46.547Z,60.83
2019-06-07T20:24:26.961Z,60.68
2019-06-07T20:26:52.772Z,60.63
2019-06-07T20:29:26.438Z,60.86
2019-06-07T20:31:58.533Z,61.41
2019-06-07T20:34:30.336Z,61.53
2019-06-07T20:37:05.141Z,61.26
2019-06-07T20:39:36.384Z,61.20
2019-06-07T20:42:08.153Z,61.22
2019-06-07T20:44:40.084Z,61.37
2019-06-07T20:47:12.152Z,61.23
2019-06-07T20:49:44.010Z,60.98
2019-06-07T20:52:15.946Z,60.78
2019-06-07T20:54:47.804Z,60.89
2019-06-07T20:57:19.878Z,60.81
2019-06-07T20:59:51.900Z,60.72
2019-06-07T21:02:24.002Z,60.61
2019-06-07T21:04:55.863Z,60.60
2019-06-07T21:07:27.645Z,60.50
2019-06-07T21:09:59.700Z,60.50
2019-06-07T21:12:31.721Z,60.17
2019-06-07T21:15:12.856Z,60.12
2019-06-07T21:17:42.611Z,60.21
2019-06-07T21:20:14.728Z,60.42
2019-06-07T21:22:47.027Z,60.55
2019-06-07T21:25:18.978Z,60.52
2019-06-07T21:27:50.898Z,60.24
2019-06-07T21:30:23.748Z,59.90
2019-06-07T21:32:55.864Z,60.01
2019-06-07T21:35:27.913Z,60.41
2019-06-07T21:38:00.002Z,60.67
2019-06-07T21:40:32.159Z,60.97
2019-06-07T21:43:04.341Z,61.22
2019-06-07T21:45:36.271Z,61.14
2019-06-07T21:48:08.830Z,61.01
2019-06-07T21:50:41.087Z,60.82
2019-06-07T21:53:13.327Z,60.87
2019-06-07T21:55:45.317Z,59.91
2019-06-07T21:58:17.272Z,59.68
2019-06-07T22:01:01.530Z,59.54
2019-06-07T22:03:33.963Z,58.96
2019-06-07T22:06:06.303Z,58.99
2019-06-07T22:08:40.187Z,58.40
2019-06-07T22:11:12.487Z,58.24
2019-06-07T22:13:44.362Z,58.51
2019-06-07T22:16:26.260Z,58.03
2019-06-07T22:18:50.441Z,58.31
2019-06-07T22:21:22.368Z,58.22
2019-06-07T22:23:54.364Z,58.51
2019-06-07T22:26:26.369Z,58.10
2019-06-07T22:28:58.577Z,59.03
2019-06-07T22:31:31.170Z,58.18
2019-06-07T22:34:03.729Z,58.17
2019-06-07T22:36:35.934Z,57.59
2019-06-07T22:39:09.630Z,57.71
2019-06-07T22:41:42.756Z,58.18
2019-06-07T22:44:14.970Z,58.68
2019-06-07T22:46:47.763Z,58.99
2019-06-07T22:49:19.768Z,58.95
2019-06-07T22:51:51.601Z,58.48
2019-06-07T22:54:23.583Z,58.59
2019-06-07T22:57:00.102Z,59.18
2019-06-07T22:59:31.933Z,59.72
2019-06-07T23:02:04.009Z,59.66
2019-06-07T23:04:35.787Z,59.81
2019-06-07T23:07:08.868Z,60.12
2019-06-07T23:09:41.753Z,59.80
2019-06-07T23:12:13.754Z,59.64
2019-06-07T23:14:45.861Z,59.83
2019-06-07T23:17:18.355Z,59.59
2019-06-07T23:19:51.322Z,59.53
2019-06-07T23:22:23.181Z,59.68
2019-06-07T23:24:55.061Z,59.94
2019-06-07T23:27:26.860Z,60.01
2019-06-07T23:29:58.924Z,60.25
2019-06-07T23:32:30.809Z,60.25
2019-06-07T23:35:03.156Z,60.37
2019-06-07T23:37:37.290Z,60.49
2019-06-07T23:40:09.126Z,60.31
2019-06-07T23:42:40.990Z,60.32
2019-06-07T23:45:13.756Z,60.33
2019-06-07T23:47:45.815Z,60.25
2019-06-07T23:50:17.734Z,60.24
2019-06-07T23:52:49.501Z,59.87
2019-06-07T23:55:22.303Z,59.97
2019-06-07T23:57:55.545Z,60.13
